• Join FlightAware (Why Join?)
  • Login
  • US Flag 
07:52PM EDT


 

Airport Tracker/Info


-or-


 

Live Flight TrackerFlight Track Log ✈ N990JB ✈ 09-May-2013 ✈ KYIP - KMFD

Flight Track Log - Related Links

Times and Time Zones

All times are in EDT time to prevent confusion due to time zone crossing. See the N990JB flight status page for this flight to view local times or setup timezone preferences in your user account.

Time Position Orientation Groundspeed Altitude Reporting Facility
EDT Latitude Longitude Course Direction KTS MPH feet Rate Location/Type
07:01AM 42.1789 -83.6008 218° Southwest 135 155 2,600  Level Cleveland Center
07:02AM 42.1508 -83.6361 223° Southwest 133 153 3,500 900 Climbing Cleveland Center
07:03AM 42.1228 -83.6683 220° Southwest 140 161 4,500 720 Climbing Cleveland Center
07:04AM 42.0928 -83.6978 216° Southwest 150 173 4,900 240 Climbing Cleveland Center
07:05AM 42.0461 -83.7233 202° Southwest 197 227 5,000  Climbing Cleveland Center
07:06AM 42.0081 -83.6711 134° Southeast 203 234 4,900 -120 Descending Cleveland Center
07:08AM 41.9418 -83.6052 144° Southeast  Level Estimated
07:15AM 41.6837 -83.3502 144° Southeast  Level Estimated
07:16AM 41.6468 -83.3140 144° Southeast  Level Estimated
07:17AM 41.6099 -83.2778 144° Southeast  Level Estimated
07:18AM 41.5730 -83.2416 144° Southeast  Level Estimated
07:19AM 41.5360 -83.2055 144° Southeast  Level Estimated
07:20AM 41.4991 -83.1694 144° Southeast  Level Estimated
07:21AM 41.4621 -83.1333 144° Southeast  Level Estimated
07:22AM 41.4251 -83.0973 144° Southeast  Level Estimated
07:23AM 41.3881 -83.0613 144° Southeast  Level Estimated
07:24AM 41.3511 -83.0254 144° Southeast  Level Estimated
07:25AM 41.3141 -82.9895 144° Southeast  Level Estimated
07:26AM 41.2771 -82.9537 144° Southeast  Level Estimated
07:27AM 41.2401 -82.9179 144° Southeast  Level Estimated
07:28AM 41.2030 -82.8821 144° Southeast  Level Estimated
07:29AM 41.1660 -82.8464 144° Southeast  Level Estimated
07:30AM 41.1289 -82.8107 144° Southeast  Level Estimated
07:31AM 41.0918 -82.7751 144° Southeast  Level Estimated
07:32AM 41.0547 -82.7395 144° Southeast  Level Estimated
07:33AM 41.0176 -82.7039 144° Southeast  Level Estimated
07:34AM 40.9805 -82.6684 144° Southeast  Level Estimated
07:35AM 40.9434 -82.6329 144° Southeast  Level Estimated
07:36AM 40.9063 -82.5975 144° Southeast  Level Estimated
07:37AM 40.8691 -82.5620 144° Southeast  Level Estimated
07:38AM 40.8320 -82.5267 144° Southeast  Level Estimated
07:39AM 40.8214 -82.5166 144° Southeast  Level Estimated
07:40AM 40.8214 -82.5166 166° South  Level Estimated
07:41AM 40.8214 -82.5166 166° South  Level Estimated